Time;durP1;ratioP1;P1;durP2;ratioP2;P2;SDS_P1;SDS_P2;PMS_P1;PMS_P2;Temp;Humidity;BMP_temperature;BMP_pressure;BME280_temperature;BME280_humidity;BME280_pressure;Samples;Min_cycle;Max_cycle;Signal;HPM_P1;HPM_P2
2023/05/19 00:00:52;;;;;;;;;13.00;9.00;;;;;-146.67;100.00;57155.34;5121738;28;8813;-85
2023/05/19 00:03:20;;;;;;;;;13.00;11.50;;;;;-146.67;100.00;57155.34;5122635;28;10645;-84
2023/05/19 00:05:47;;;;;;;;;14.00;10.00;;;;;-146.67;100.00;57155.34;5122965;27;8783;-84
2023/05/19 00:08:16;;;;;;;;;12.50;9.00;;;;;-146.67;100.00;57155.34;5122893;28;10992;-84
2023/05/19 00:10:42;;;;;;;;;8.75;7.00;;;;;-146.67;100.00;57155.34;5123163;28;10965;-84
2023/05/19 00:13:08;;;;;;;;;13.00;11.00;;;;;-146.67;100.00;57155.34;5121553;28;10980;-85
2023/05/19 00:15:34;;;;;;;;;14.50;13.50;;;;;-146.67;100.00;57155.34;5122645;28;11446;-84
2023/05/19 00:17:59;;;;;;;;;18.00;15.00;;;;;-146.67;100.00;57155.34;5124441;28;8735;-84
2023/05/19 00:20:24;;;;;;;;;0.00;0.00;;;;;-146.67;100.00;57155.34;5126563;28;11161;-84
2023/05/19 00:22:50;;;;;;;;;15.75;12.00;;;;;-146.67;100.00;57155.34;5126391;28;8802;-84
2023/05/19 00:25:15;;;;;;;;;10.75;7.00;;;;;-146.67;100.00;57155.34;5126633;28;8783;-84
2023/05/19 00:27:41;;;;;;;;;10.50;10.25;;;;;-146.67;100.00;57155.34;5124710;28;8925;-84
2023/05/19 00:30:07;;;;;;;;;13.50;12.75;;;;;-146.67;100.00;57155.34;5126517;28;8807;-84
2023/05/19 00:32:32;;;;;;;;;20.25;11.75;;;;;-146.67;100.00;57155.34;5125854;28;8799;-84
2023/05/19 00:34:58;;;;;;;;;11.00;9.75;;;;;-146.67;100.00;57155.34;5126221;28;8864;-84
2023/05/19 00:37:23;;;;;;;;;14.50;12.25;;;;;-146.67;100.00;57155.34;5126051;28;9635;-84
2023/05/19 00:39:49;;;;;;;;;14.75;10.50;;;;;-146.67;100.00;57155.34;5126316;28;8811;-84
2023/05/19 00:42:14;;;;;;;;;11.25;7.25;;;;;-146.67;100.00;57155.34;5126083;28;8811;-84
2023/05/19 00:44:40;;;;;;;;;14.50;11.50;;;;;-146.67;100.00;57155.34;5126028;28;8787;-84
2023/05/19 00:47:09;;;;;;;;;0.00;0.00;;;;;-146.67;100.00;57155.34;5124108;28;8818;-84
2023/05/19 00:49:34;;;;;;;;;6.00;4.00;;;;;-146.67;29.47;75184.75;5117880;28;61289;-84
2023/05/19 00:52:01;;;;;;;;;9.25;5.50;;;;;-146.67;29.84;75200.72;5085448;28;61702;-83
2023/05/19 00:54:27;;;;;;;;;19.00;10.75;;;;;-146.67;29.95;75218.69;5084133;28;61732;-84
2023/05/19 00:56:54;;;;;;;;;10.00;8.00;;;;;-146.67;30.08;75250.66;5083465;28;62122;-84
2023/05/19 00:59:20;;;;;;;;;10.75;10.50;;;;;-146.67;30.07;75262.63;5084783;28;61848;-82
2023/05/19 01:01:47;;;;;;;;;14.50;13.00;;;;;-146.67;30.37;75252.66;5084996;28;62065;-84
2023/05/19 01:04:18;;;;;;;;;12.50;10.25;;;;;-146.67;30.23;75244.66;5084502;27;64964;-83
2023/05/19 01:06:46;;;;;;;;;12.00;11.00;;;;;-146.67;30.46;75258.63;5100153;27;61742;-84
2023/05/19 01:09:11;;;;;;;;;13.75;12.00;;;;;-146.67;30.76;75282.59;5100680;27;61819;-83
2023/05/19 01:11:37;;;;;;;;;11.00;10.25;;;;;-146.67;31.08;75290.59;5083250;28;61876;-84
2023/05/19 01:14:02;;;;;;;;;13.75;12.50;;;;;-146.67;31.50;75326.53;5082470;28;64751;-84
2023/05/19 01:16:55;;;;;;;;;15.50;13.00;;;;;-146.67;31.41;75348.50;5100237;27;62238;-84
2023/05/19 01:19:56;;;;;;;;;16.00;13.25;;;;;-146.67;31.37;75366.47;5076897;28;62316;-84
2023/05/19 01:22:47;;;;;;;;;15.25;14.50;;;;;-146.67;31.13;75362.47;5084567;28;62008;-84
2023/05/19 01:25:35;;;;;;;;;14.50;12.75;;;;;-146.67;31.83;75378.44;5084111;28;61968;-84
2023/05/19 01:28:47;;;;;;;;;15.25;12.50;;;;;-146.67;31.55;75404.41;5082561;28;61980;-84
2023/05/19 01:31:15;;;;;;;;;16.00;12.00;;;;;-146.67;32.38;75414.38;5084583;27;61882;-84
2023/05/19 01:33:42;;;;;;;;;16.25;12.75;;;;;-146.67;32.57;75434.34;5084109;28;61859;-84
2023/05/19 01:36:11;;;;;;;;;16.75;14.00;;;;;-146.67;32.36;75448.34;5082383;28;64983;-84
2023/05/19 01:38:37;;;;;;;;;17.25;13.25;;;;;-146.67;32.58;75448.34;5084149;28;61869;-84
2023/05/19 01:41:05;;;;;;;;;24.25;14.00;;;;;-146.67;32.41;75454.31;5082901;28;61904;-84
2023/05/19 01:43:32;;;;;;;;;15.75;12.75;;;;;-146.67;32.49;75454.31;5083843;28;62024;-84
2023/05/19 01:45:58;;;;;;;;;16.50;12.00;;;;;-146.67;32.53;75458.31;5083523;28;62191;-84
2023/05/19 01:48:24;;;;;;;;;13.75;11.75;;;;;-146.67;32.95;75472.28;5082109;28;61829;-84
2023/05/19 01:50:50;;;;;;;;;17.50;13.25;;;;;-146.67;31.85;75478.28;5084013;28;62044;-84
2023/05/19 01:53:16;;;;;;;;;13.75;12.00;;;;;-146.67;33.07;75494.25;5084319;28;61828;-84
2023/05/19 01:55:48;;;;;;;;;20.75;14.50;;;;;-146.67;32.99;75506.25;5083298;28;62872;-84
2023/05/19 01:58:13;;;;;;;;;15.25;14.00;;;;;-146.67;33.42;75514.22;5083486;28;62015;-84
2023/05/19 02:00:57;;;;;;;;;12.00;9.25;;;;;-146.67;32.45;75516.22;5082557;28;61813;-84
2023/05/19 02:03:48;;;;;;;;;13.00;11.75;;;;;-146.67;32.90;75516.22;5084113;28;61973;-84
2023/05/19 02:06:23;;;;;;;;;13.25;13.00;;;;;-146.67;33.40;75530.22;5078598;28;64075;-84
2023/05/19 02:08:48;;;;;;;;;17.00;13.00;;;;;-146.67;33.20;75508.25;5061954;28;62017;-84
2023/05/19 02:11:21;;;;;;;;;12.00;11.50;;;;;-146.67;32.32;75496.25;5062446;28;62018;-84
2023/05/19 02:13:50;;;;;;;;;13.00;10.00;;;;;-146.67;32.58;75492.28;5061876;28;61949;-83
2023/05/19 02:16:16;;;;;;;;;11.25;8.75;;;;;-146.67;32.67;75486.28;5095347;27;64979;-84
2023/05/19 02:18:45;;;;;;;;;20.00;14.75;;;;;-146.67;32.49;75476.28;5062667;28;61754;-83
2023/05/19 02:21:12;;;;;;;;;16.00;11.25;;;;;-146.67;32.44;75474.28;5063375;28;61932;-84
2023/05/19 02:23:40;;;;;;;;;13.50;9.00;;;;;-146.67;32.25;75446.34;5063417;28;61772;-84
2023/05/19 02:26:07;;;;;;;;;12.75;7.75;;;;;-146.67;32.10;75432.34;5062721;28;63155;-84
2023/05/19 02:28:33;;;;;;;;;11.75;10.50;;;;;-146.67;32.12;75444.34;5062641;28;61870;-83
2023/05/19 02:30:58;;;;;;;;;16.50;15.00;;;;;-146.67;32.41;75446.34;5078421;28;61820;-84
2023/05/19 02:33:26;;;;;;;;;14.00;11.75;;;;;-146.67;32.49;75462.31;5062094;28;62077;-84
2023/05/19 02:35:51;;;;;;;;;19.00;16.00;;;;;-146.67;32.99;75480.28;5062352;28;62078;-84
2023/05/19 02:38:17;;;;;;;;;14.00;12.75;;;;;-146.67;33.62;75510.25;5078676;28;61952;-84
2023/05/19 02:40:42;;;;;;;;;17.75;14.75;;;;;-146.67;33.47;75522.22;5061212;28;61860;-84
2023/05/19 02:43:08;;;;;;;;;14.00;11.00;;;;;-146.67;33.21;75512.25;5062634;28;61882;-84
2023/05/19 02:45:33;;;;;;;;;22.50;17.25;;;;;-146.67;33.55;75520.22;5062261;28;62905;-84
2023/05/19 02:47:58;;;;;;;;;17.00;13.75;;;;;-146.67;33.40;75516.22;5077851;28;61959;-84
2023/05/19 02:50:24;;;;;;;;;19.50;15.50;;;;;-146.67;33.57;75520.22;5062997;28;61850;-84
2023/05/19 02:52:49;;;;;;;;;17.75;13.50;;;;;-146.67;33.38;75526.22;5062656;28;61961;-84
2023/05/19 02:55:16;;;;;;;;;12.25;10.50;;;;;-146.67;33.42;75514.22;5062286;28;61990;-84
2023/05/19 02:57:42;;;;;;;;;15.25;14.00;;;;;-146.67;33.35;75494.25;5094814;27;61934;-84
2023/05/19 03:00:08;;;;;;;;;16.75;12.25;;;;;-146.67;33.35;75498.25;5062500;28;61977;-83
2023/05/19 03:02:34;;;;;;;;;23.75;14.00;;;;;-146.67;33.60;75506.25;5078531;28;62117;-84
2023/05/19 03:05:00;;;;;;;;;15.25;13.00;;;;;-146.67;33.31;75498.25;5074304;28;62497;-83
2023/05/19 03:07:26;;;;;;;;;19.25;12.25;;;;;-146.67;33.17;75472.28;5082803;28;61735;-84
2023/05/19 03:09:51;;;;;;;;;16.50;11.25;;;;;-146.67;32.98;75476.28;5082440;28;62399;-83
2023/05/19 03:12:17;;;;;;;;;18.25;16.00;;;;;-146.67;32.81;75486.28;5081502;28;62061;-84
2023/05/19 03:14:42;;;;;;;;;19.25;15.25;;;;;-146.67;32.89;75472.28;5080960;28;63932;-83
2023/05/19 03:17:08;;;;;;;;;16.00;13.75;;;;;-146.67;32.92;75474.28;5081945;28;61761;-83
2023/05/19 03:19:34;;;;;;;;;15.00;13.25;;;;;-146.67;33.17;75484.28;5082577;28;61862;-83
2023/05/19 03:21:59;;;;;;;;;20.75;13.75;;;;;-146.67;33.14;75486.28;5082834;28;62120;-83
2023/05/19 03:24:25;;;;;;;;;17.75;15.25;;;;;-146.67;33.56;75498.25;5081718;28;61828;-83
2023/05/19 03:26:50;;;;;;;;;16.50;14.75;;;;;-146.67;33.50;75522.22;5082490;28;61888;-84
2023/05/19 03:29:16;;;;;;;;;16.50;13.75;;;;;-146.67;33.57;75540.19;5081319;28;61967;-84
2023/05/19 03:31:41;;;;;;;;;20.25;15.50;;;;;-146.67;33.25;75558.16;5081195;28;61843;-84
2023/05/19 03:34:07;;;;;;;;;21.00;16.25;;;;;-146.67;33.45;75564.16;5081660;28;61803;-83
2023/05/19 03:36:38;;;;;;;;;18.50;14.50;;;;;-146.67;33.71;75546.19;5082602;28;61772;-83
2023/05/19 03:39:05;;;;;;;;;16.00;13.75;;;;;-146.67;33.71;75546.19;5082008;28;61989;-83
2023/05/19 03:41:30;;;;;;;;;17.00;15.25;;;;;-146.67;33.52;75526.22;5082579;28;61880;-83
2023/05/19 03:43:56;;;;;;;;;15.75;13.50;;;;;-146.67;33.65;75522.22;5081716;28;61983;-83
2023/05/19 03:46:21;;;;;;;;;13.00;13.00;;;;;-146.67;33.22;75530.22;5082264;28;61833;-84
2023/05/19 03:48:46;;;;;;;;;19.25;16.00;;;;;-146.67;33.60;75532.22;5081852;27;62414;-83
2023/05/19 03:51:12;;;;;;;;;14.25;14.25;;;;;-146.67;33.33;75532.22;5082363;28;61811;-84
2023/05/19 03:53:37;;;;;;;;;16.75;14.50;;;;;-146.67;33.52;75522.22;5082910;28;64350;-83
2023/05/19 03:56:04;;;;;;;;;14.50;13.50;;;;;-146.67;33.26;75510.25;5085780;28;61890;-83
2023/05/19 03:58:30;;;;;;;;;19.25;13.50;;;;;-146.67;33.21;75498.25;5084426;28;61998;-83
2023/05/19 04:00:55;;;;;;;;;22.25;11.25;;;;;-146.67;33.27;75494.25;5084470;28;61852;-83
2023/05/19 04:03:21;;;;;;;;;15.50;11.00;;;;;-146.67;33.24;75496.25;5085259;28;63059;-83
2023/05/19 04:05:46;;;;;;;;;23.50;17.25;;;;;-146.67;33.28;75508.25;5085582;28;62031;-83
2023/05/19 04:08:11;;;;;;;;;20.25;15.00;;;;;-146.67;100.00;57155.34;5089599;28;61766;-83
2023/05/19 04:10:37;;;;;;;;;17.00;12.00;;;;;-146.67;100.00;57155.34;5126864;28;8791;-84
2023/05/19 04:13:02;;;;;;;;;20.25;18.00;;;;;-146.67;100.00;57155.34;5124847;28;10087;-83
2023/05/19 04:15:28;;;;;;;;;14.50;12.50;;;;;-146.67;100.00;57155.34;5126590;28;8802;-83
2023/05/19 04:17:54;;;;;;;;;18.25;15.00;;;;;-146.67;100.00;57155.34;5126119;28;8795;-83
2023/05/19 04:20:19;;;;;;;;;21.75;16.50;;;;;-146.67;100.00;57155.34;5126149;28;8795;-84
2023/05/19 04:22:45;;;;;;;;;21.00;15.00;;;;;-146.67;100.00;57155.34;5126111;28;11524;-83
2023/05/19 04:25:10;;;;;;;;;22.25;18.75;;;;;-146.67;100.00;57155.34;5126475;28;8778;-83
2023/05/19 04:27:37;;;;;;;;;19.25;14.00;;;;;-146.67;100.00;57155.34;5126310;28;9464;-84
2023/05/19 04:30:04;;;;;;;;;23.25;15.00;;;;;-146.67;100.00;57155.34;5126326;28;8735;-84
2023/05/19 04:32:29;;;;;;;;;19.50;14.25;;;;;-146.67;100.00;57155.34;5126051;28;11405;-83
2023/05/19 04:34:57;;;;;;;;;16.50;16.00;;;;;-146.67;100.00;57155.34;5124842;28;11476;-83
2023/05/19 04:37:24;;;;;;;;;19.50;14.75;;;;;-146.67;100.00;57155.34;5124522;28;8791;-83
2023/05/19 04:39:51;;;;;;;;;19.00;18.00;;;;;-146.67;100.00;57155.34;5126166;28;11464;-83
2023/05/19 04:42:18;;;;;;;;;22.25;16.50;;;;;-146.67;100.00;57155.34;5125537;28;11549;-83
2023/05/19 04:44:44;;;;;;;;;18.00;18.00;;;;;-146.67;100.00;57155.34;5124718;28;11446;-84
2023/05/19 04:47:09;;;;;;;;;24.00;13.75;;;;;-146.67;100.00;57155.34;5125328;28;11449;-83
2023/05/19 04:49:38;;;;;;;;;16.75;12.75;;;;;-146.67;100.00;57155.34;5126046;28;12214;-84
2023/05/19 04:52:09;;;;;;;;;17.75;12.50;;;;;-146.67;100.00;57155.34;5124008;28;10248;-83
2023/05/19 04:54:36;;;;;;;;;21.50;16.25;;;;;-146.67;100.00;57155.34;5124442;28;11459;-83
2023/05/19 04:57:03;;;;;;;;;24.25;17.00;;;;;-146.67;100.00;57155.34;5124417;28;11463;-83
2023/05/19 04:59:28;;;;;;;;;19.25;16.00;;;;;-146.67;100.00;57155.34;5125591;28;12370;-84
2023/05/19 05:01:54;;;;;;;;;20.25;16.50;;;;;-146.67;100.00;57155.34;5124598;28;11525;-83
2023/05/19 05:04:20;;;;;;;;;17.50;15.50;;;;;-146.67;100.00;57155.34;5125268;28;8806;-83
2023/05/19 05:06:47;;;;;;;;;22.25;18.00;;;;;-146.67;100.00;57155.34;5123912;28;11433;-83
2023/05/19 05:09:14;;;;;;;;;28.00;17.75;;;;;-146.67;100.00;57155.34;5125788;28;9551;-84
2023/05/19 05:11:40;;;;;;;;;19.75;17.00;;;;;-146.67;100.00;57155.34;5124087;28;11507;-84
2023/05/19 05:14:06;;;;;;;;;21.00;17.75;;;;;-146.67;100.00;57155.34;5125802;28;11412;-84
2023/05/19 05:16:32;;;;;;;;;20.25;16.25;;;;;-146.67;100.00;57155.34;5124242;28;11465;-84
2023/05/19 05:18:58;;;;;;;;;15.75;14.75;;;;;-146.67;100.00;57155.34;5125203;27;8818;-84
2023/05/19 05:21:25;;;;;;;;;21.25;19.00;;;;;-146.67;100.00;57155.34;5124834;28;11460;-84
2023/05/19 05:23:51;;;;;;;;;21.75;15.50;;;;;-146.67;100.00;57155.34;5125580;28;11351;-84
2023/05/19 05:26:23;;;;;;;;;17.50;14.25;;;;;-146.67;100.00;57155.34;5125337;28;11524;-84
2023/05/19 05:28:49;;;;;;;;;24.25;15.25;;;;;-146.67;100.00;57155.34;5125240;28;11476;-83
2023/05/19 05:31:15;;;;;;;;;16.50;15.50;;;;;-146.67;100.00;57155.34;5125468;27;11507;-84
2023/05/19 05:33:41;;;;;;;;;22.25;17.75;;;;;-146.67;100.00;57155.34;5123830;28;11550;-83
2023/05/19 05:36:07;;;;;;;;;22.50;15.75;;;;;-146.67;100.00;57155.34;5125089;28;8732;-83
2023/05/19 05:38:33;;;;;;;;;21.00;17.25;;;;;-146.67;100.00;57155.34;5125107;28;11528;-83
2023/05/19 05:40:59;;;;;;;;;18.00;15.25;;;;;-146.67;100.00;57155.34;5125154;28;12367;-83
2023/05/19 05:43:25;;;;;;;;;19.00;15.00;;;;;-146.67;100.00;57155.34;5123621;28;8732;-83
2023/05/19 05:45:50;;;;;;;;;17.75;12.00;;;;;-146.67;100.00;57155.34;5125079;28;11438;-84
2023/05/19 05:48:16;;;;;;;;;17.00;14.75;;;;;-146.67;100.00;57155.34;5124660;28;8917;-84
2023/05/19 05:50:44;;;;;;;;;19.00;14.75;;;;;-146.67;100.00;57155.34;5124734;27;8907;-83
2023/05/19 05:53:17;;;;;;;;;20.75;17.00;;;;;-146.67;100.00;57155.34;5125081;28;8795;-83
2023/05/19 05:55:42;;;;;;;;;18.00;12.50;;;;;-146.67;100.00;57155.34;5123411;28;11443;-84
2023/05/19 05:58:09;;;;;;;;;21.50;19.00;;;;;-146.67;100.00;57155.34;5124614;28;12224;-83
2023/05/19 06:00:36;;;;;;;;;21.25;14.75;;;;;-146.67;100.00;57155.34;5124712;28;8795;-84
2023/05/19 06:03:03;;;;;;;;;21.00;15.50;;;;;-146.67;100.00;57155.34;5124960;28;11371;-84
2023/05/19 06:05:28;;;;;;;;;21.50;14.00;;;;;-146.67;100.00;57155.34;5124071;28;12455;-84
2023/05/19 06:07:54;;;;;;;;;16.75;14.75;;;;;-146.67;100.00;57155.34;5124877;28;11453;-84
2023/05/19 06:10:20;;;;;;;;;18.00;14.75;;;;;-146.67;100.00;57155.34;5124625;28;8831;-83
2023/05/19 06:12:45;;;;;;;;;21.50;18.25;;;;;-146.67;100.00;57155.34;5124438;28;8876;-83
2023/05/19 06:15:10;;;;;;;;;17.25;16.25;;;;;-146.67;100.00;57155.34;5124183;28;8787;-84
2023/05/19 06:17:36;;;;;;;;;21.25;16.50;;;;;-146.67;100.00;57155.34;5124000;28;8779;-83
2023/05/19 06:20:03;;;;;;;;;9.25;7.75;;;;;-146.67;100.00;57155.34;5124599;28;8903;-83
2023/05/19 06:22:29;;;;;;;;;10.25;7.00;;;;;-146.67;100.00;57155.34;5123408;28;8937;-83
2023/05/19 06:24:54;;;;;;;;;10.75;8.25;;;;;-146.67;100.00;57155.34;5123417;28;9691;-83
2023/05/19 06:27:20;;;;;;;;;18.25;16.00;;;;;-146.67;100.00;57155.34;5124649;28;8787;-83
2023/05/19 06:29:45;;;;;;;;;21.50;13.75;;;;;-146.67;100.00;57155.34;5124142;28;8811;-83
2023/05/19 06:32:10;;;;;;;;;9.75;6.50;;;;;-146.67;100.00;57155.34;5123505;28;8795;-83
2023/05/19 06:34:37;;;;;;;;;14.50;12.25;;;;;-146.67;100.00;57155.34;5123979;28;8858;-83
2023/05/19 06:37:02;;;;;;;;;18.00;13.00;;;;;-146.67;100.00;57155.34;5122989;28;8791;-83
2023/05/19 06:39:28;;;;;;;;;0.00;0.00;;;;;-146.67;100.00;57155.34;5123148;28;11325;-83
2023/05/19 06:41:53;;;;;;;;;18.25;12.50;;;;;-146.67;100.00;57155.34;5124105;28;8795;-83
2023/05/19 06:44:19;;;;;;;;;16.00;12.25;;;;;-146.67;100.00;57155.34;5124420;28;8837;-83
2023/05/19 06:46:45;;;;;;;;;9.75;7.75;;;;;-146.67;100.00;57155.34;5124166;28;8825;-84
2023/05/19 06:49:10;;;;;;;;;8.00;7.25;;;;;-146.67;100.00;57155.34;5122384;28;9894;-84
2023/05/19 06:51:35;;;;;;;;;9.75;7.25;;;;;-146.67;100.00;57155.34;5122860;28;8856;-83
2023/05/19 06:54:01;;;;;;;;;17.50;17.00;;;;;-146.67;100.00;57155.34;5124022;28;8803;-84
2023/05/19 06:56:27;;;;;;;;;8.25;8.25;;;;;-146.67;100.00;57155.34;5124364;28;8801;-83
2023/05/19 06:58:52;;;;;;;;;18.50;15.50;;;;;-146.67;100.00;57155.34;5123614;28;8807;-84
2023/05/19 07:01:17;;;;;;;;;8.00;7.00;;;;;-146.67;100.00;57155.34;5123288;28;8818;-84
2023/05/19 07:03:43;;;;;;;;;20.25;14.00;;;;;-146.67;100.00;57155.34;5123299;28;8860;-83
2023/05/19 07:06:08;;;;;;;;;0.00;0.00;;;;;-146.67;100.00;57155.34;5124173;28;8771;-84
2023/05/19 07:08:35;;;;;;;;;18.75;15.00;;;;;-146.67;100.00;57155.34;5124063;28;8813;-84
2023/05/19 07:11:01;;;;;;;;;15.75;13.50;;;;;-146.67;100.00;57155.34;5124270;28;8826;-84
2023/05/19 07:13:26;;;;;;;;;14.75;11.75;;;;;-146.67;100.00;57155.34;5123862;28;8867;-84
2023/05/19 07:15:54;;;;;;;;;14.25;11.75;;;;;-146.67;100.00;57155.34;5123753;28;8897;-82
2023/05/19 07:18:20;;;;;;;;;9.25;6.75;;;;;-146.67;100.00;57155.34;5123531;28;8783;-84
2023/05/19 07:20:45;;;;;;;;;16.00;12.25;;;;;-146.67;100.00;57155.34;5123526;28;8799;-84
2023/05/19 07:23:11;;;;;;;;;11.50;8.75;;;;;-146.67;100.00;57155.34;5124139;28;11227;-84
2023/05/19 07:25:37;;;;;;;;;15.25;13.00;;;;;-146.67;100.00;57155.34;5123953;28;9533;-83
2023/05/19 07:28:02;;;;;;;;;15.50;14.50;;;;;-146.67;100.00;57155.34;5122461;28;8810;-83
2023/05/19 07:30:28;;;;;;;;;14.75;12.00;;;;;-146.67;100.00;57155.34;5124108;28;8803;-84
2023/05/19 07:32:54;;;;;;;;;15.00;12.25;;;;;-146.67;100.00;57155.34;5123340;28;8842;-83
2023/05/19 07:35:21;;;;;;;;;16.00;12.50;;;;;-146.67;100.00;57155.34;5123855;28;10891;-83
2023/05/19 07:37:47;;;;;;;;;15.00;13.50;;;;;-146.67;100.00;57155.34;5122414;28;10083;-84
2023/05/19 07:40:13;;;;;;;;;19.00;16.25;;;;;-146.67;100.00;57155.34;5123596;28;11007;-83
2023/05/19 07:42:38;;;;;;;;;12.00;10.75;;;;;-146.67;100.00;57155.34;5123526;28;10969;-84
2023/05/19 07:45:04;;;;;;;;;16.25;13.00;;;;;-146.67;100.00;57155.34;5123493;28;8819;-84
2023/05/19 07:47:30;;;;;;;;;14.75;12.25;;;;;-146.67;100.00;57155.34;5121375;28;10096;-83
2023/05/19 07:49:55;;;;;;;;;12.75;11.00;;;;;-146.67;100.00;57155.34;5122186;28;10680;-84
2023/05/19 07:52:20;;;;;;;;;17.50;16.25;;;;;-146.67;100.00;57155.34;5122052;28;8838;-83
2023/05/19 07:54:46;;;;;;;;;0.00;0.00;;;;;-146.67;100.00;57155.34;5122467;28;8819;-84
2023/05/19 07:57:13;;;;;;;;;12.25;9.75;;;;;-146.67;100.00;57155.34;5123262;28;8786;-83
2023/05/19 07:59:38;;;;;;;;;13.75;12.25;;;;;-146.67;100.00;57155.34;5122102;28;8724;-84
2023/05/19 08:02:04;;;;;;;;;14.00;9.75;;;;;-146.67;100.00;57155.34;5123004;28;10772;-84
2023/05/19 08:04:29;;;;;;;;;10.50;10.50;;;;;-146.67;100.00;57155.34;5121790;28;8892;-83
2023/05/19 08:06:55;;;;;;;;;0.00;0.00;;;;;-146.67;100.00;57155.34;5123568;28;8795;-84
2023/05/19 08:09:20;;;;;;;;;16.00;11.25;;;;;-146.67;100.00;57155.34;5123463;28;8869;-84
2023/05/19 08:11:46;;;;;;;;;15.25;10.00;;;;;-146.67;100.00;57155.34;5123220;28;8795;-84
2023/05/19 08:14:11;;;;;;;;;15.00;12.00;;;;;-146.67;100.00;57155.34;5121786;28;8884;-84
2023/05/19 08:16:37;;;;;;;;;14.75;12.75;;;;;-146.67;100.00;57155.34;5122983;27;8844;-84
2023/05/19 08:19:04;;;;;;;;;16.00;12.00;;;;;-146.67;100.00;57155.34;5121167;28;8830;-84
2023/05/19 08:21:33;;;;;;;;;9.75;7.50;;;;;-146.67;100.00;57155.34;5123582;28;8775;-84
2023/05/19 08:23:59;;;;;;;;;15.25;10.75;;;;;-146.67;100.00;57155.34;5121977;28;8830;-83
2023/05/19 08:26:25;;;;;;;;;15.75;11.75;;;;;-146.67;100.00;57155.34;5121766;28;10667;-84
2023/05/19 08:28:50;;;;;;;;;14.75;14.00;;;;;-146.67;100.00;57155.34;5122474;28;10801;-84
2023/05/19 08:31:17;;;;;;;;;16.25;11.75;;;;;-146.67;100.00;57155.34;5121843;28;8894;-84
2023/05/19 08:33:42;;;;;;;;;11.00;9.75;;;;;-146.67;100.00;57155.34;5123028;28;8763;-84
2023/05/19 08:36:08;;;;;;;;;14.50;13.00;;;;;-146.67;100.00;57155.34;5121368;28;10746;-83
2023/05/19 08:38:33;;;;;;;;;14.25;12.75;;;;;-146.67;100.00;57155.34;5123314;28;8815;-84
2023/05/19 08:40:59;;;;;;;;;10.50;9.25;;;;;-146.67;100.00;57155.34;5126200;28;8807;-84
2023/05/19 08:43:24;;;;;;;;;19.50;10.25;;;;;-146.67;100.00;57155.34;5126170;28;8772;-83
2023/05/19 08:45:52;;;;;;;;;11.50;9.50;;;;;-146.67;100.00;57155.34;5126546;28;8864;-84
2023/05/19 08:48:19;;;;;;;;;11.50;8.00;;;;;-146.67;100.00;57155.34;5125796;28;8767;-84
2023/05/19 08:50:55;;;;;;;;;13.75;9.75;;;;;-146.67;100.00;57155.34;5124871;28;10654;-83
2023/05/19 08:53:26;;;;;;;;;8.25;7.75;;;;;-146.67;100.00;57155.34;5124632;28;10513;-83
2023/05/19 08:56:00;;;;;;;;;14.50;8.75;;;;;-146.67;100.00;57155.34;5126423;28;10609;-84
2023/05/19 08:58:26;;;;;;;;;10.50;7.00;;;;;-146.67;100.00;57155.34;5124353;28;10552;-84
2023/05/19 09:00:52;;;;;;;;;11.50;8.75;;;;;-146.67;100.00;57155.34;5124697;28;10449;-84
2023/05/19 09:03:18;;;;;;;;;0.00;0.00;;;;;-146.67;100.00;57155.34;5126348;28;10473;-84
2023/05/19 09:05:45;;;;;;;;;10.50;8.75;;;;;-146.67;100.00;57155.34;5125854;28;8772;-84
2023/05/19 09:08:11;;;;;;;;;11.25;9.50;;;;;-146.67;100.00;57155.34;5126095;28;10481;-84
2023/05/19 09:10:37;;;;;;;;;10.75;9.50;;;;;-146.67;100.00;57155.34;5125852;28;10540;-84
2023/05/19 09:13:04;;;;;;;;;10.00;8.25;;;;;-146.67;100.00;57155.34;5125434;28;10552;-84
2023/05/19 09:15:30;;;;;;;;;11.75;10.00;;;;;-146.67;100.00;57155.34;5125647;28;8875;-84
2023/05/19 09:18:14;;;;;;;;;9.50;7.75;;;;;-146.67;100.00;57155.34;5125516;28;10887;-84
2023/05/19 09:20:41;;;;;;;;;8.75;7.50;;;;;-146.67;100.00;57155.34;5125816;28;10488;-84
2023/05/19 09:23:12;;;;;;;;;0.00;0.00;;;;;-146.67;100.00;57155.34;5124735;28;11404;-84
2023/05/19 09:25:49;;;;;;;;;0.00;0.00;;;;;-146.67;100.00;57155.34;5126096;28;8759;-84
2023/05/19 09:28:34;;;;;;;;;7.50;7.00;;;;;-146.67;100.00;57155.34;5123822;28;8927;-84
2023/05/19 09:31:06;;;;;;;;;5.25;5.25;;;;;-146.67;100.00;57155.34;5126094;28;10336;-83
2023/05/19 09:33:33;;;;;;;;;0.00;0.00;;;;;-146.67;100.00;57155.34;5124538;28;8897;-84
2023/05/19 09:35:59;;;;;;;;;9.75;8.25;;;;;-146.67;100.00;57155.34;5125786;28;8724;-85
2023/05/19 09:38:26;;;;;;;;;0.00;0.00;;;;;-146.67;100.00;57155.34;5125840;28;10386;-84
2023/05/19 09:40:55;;;;;;;;;11.25;11.25;;;;;-146.67;100.00;57155.34;5123886;27;8887;-85
2023/05/19 09:43:20;;;;;;;;;10.75;8.50;;;;;-146.67;100.00;57155.34;5125255;28;10459;-84
2023/05/19 09:45:46;;;;;;;;;1.00;0.00;;;;;-146.67;100.00;57155.34;5125507;28;10565;-84
2023/05/19 09:48:14;;;;;;;;;9.50;9.50;;;;;-146.67;100.00;57155.34;5123503;28;8821;-83
2023/05/19 09:50:41;;;;;;;;;8.25;7.25;;;;;-146.67;100.00;57155.34;5124316;28;8951;-84
2023/05/19 09:53:07;;;;;;;;;9.75;9.00;;;;;-146.67;100.00;57155.34;5123755;28;10381;-84
2023/05/19 09:55:33;;;;;;;;;9.25;7.75;;;;;-146.67;100.00;57155.34;5125253;28;10469;-83
2023/05/19 09:58:00;;;;;;;;;4.33;2.67;;;;;-146.67;100.00;57155.34;5125226;28;8772;-84
2023/05/19 10:00:26;;;;;;;;;10.00;8.25;;;;;-146.67;100.00;57155.34;5125311;28;8803;-84
2023/05/19 10:02:51;;;;;;;;;7.00;6.75;;;;;-146.67;100.00;57155.34;5123709;28;10248;-84
2023/05/19 10:05:21;;;;;;;;;14.00;9.00;;;;;-146.67;100.00;57155.34;5124908;28;10307;-84
2023/05/19 10:07:50;;;;;;;;;8.00;6.25;;;;;-146.67;100.00;57155.34;5125349;28;8755;-85
2023/05/19 10:10:16;;;;;;;;;7.00;5.00;;;;;-146.67;100.00;57155.34;5125474;28;10207;-84
2023/05/19 10:12:42;;;;;;;;;8.00;7.25;;;;;-146.67;100.00;57155.34;5124538;28;10091;-84
2023/05/19 10:15:12;;;;;;;;;10.00;8.75;;;;;-146.67;100.00;57155.34;5124941;28;10403;-84
2023/05/19 10:17:39;;;;;;;;;11.50;7.00;;;;;-146.67;100.00;57155.34;5123034;28;9716;-84
2023/05/19 10:20:13;;;;;;;;;10.00;7.50;;;;;-146.67;100.00;57155.34;5124910;28;10267;-84
2023/05/19 10:22:39;;;;;;;;;12.50;7.00;;;;;-146.67;100.00;57155.34;5123426;28;10324;-84
2023/05/19 10:25:06;;;;;;;;;8.00;7.00;;;;;-146.67;100.00;57155.34;5124419;28;10054;-84
2023/05/19 10:27:35;;;;;;;;;7.00;7.00;;;;;-146.67;100.00;57155.34;5124703;28;10067;-84
2023/05/19 10:30:15;;;;;;;;;9.00;8.00;;;;;-146.67;100.00;57155.34;5124772;28;10117;-83
2023/05/19 10:32:42;;;;;;;;;10.25;8.50;;;;;-146.67;100.00;57155.34;5123454;28;9948;-84
2023/05/19 10:35:41;;;;;;;;;0.00;0.00;;;;;-146.67;100.00;57155.34;5125305;28;10374;-85
2023/05/19 10:38:06;;;;;;;;;0.00;0.00;;;;;-146.67;100.00;57155.34;5125212;27;8763;-84
2023/05/19 10:40:40;;;;;;;;;0.00;0.00;;;;;-146.67;100.00;57155.34;5124397;28;8889;-84
2023/05/19 10:43:10;;;;;;;;;0.00;0.00;;;;;-146.67;100.00;57155.34;5124833;28;8794;-84
2023/05/19 10:45:45;;;;;;;;;0.00;0.00;;;;;-146.67;100.00;57155.34;5124794;28;8770;-84
2023/05/19 10:48:14;;;;;;;;;0.00;0.00;;;;;-146.67;100.00;57155.34;5124417;28;8886;-84
2023/05/19 10:50:42;;;;;;;;;0.00;0.00;;;;;-146.67;100.00;57155.34;5124767;28;8894;-84
2023/05/19 10:53:16;;;;;;;;;0.00;0.00;;;;;-146.67;100.00;57155.34;5124546;28;8898;-84
2023/05/19 10:55:55;;;;;;;;;0.00;0.00;;;;;-146.67;100.00;57155.34;5123028;28;10113;-84
2023/05/19 10:58:45;;;;;;;;;0.00;0.00;;;;;-146.67;100.00;57155.34;5124428;28;8771;-84
2023/05/19 11:01:15;;;;;;;;;0.00;0.00;;;;;-146.67;100.00;57155.34;5124404;28;8767;-85
2023/05/19 11:03:55;;;;;;;;;0.00;0.00;;;;;-146.67;100.00;57155.34;5124279;28;8877;-84
2023/05/19 11:06:30;;;;;;;;;0.00;0.00;;;;;-146.67;100.00;57155.34;5123199;28;10032;-84